sensor_id;sensor_type;location;lat;lon;timestamp;P1;durP1;ratioP1;P2;durP2;ratioP2
50231;SDS011;36118;56.468;84.952;2022-07-01T00:04:17;10.82;;;4.43;;
50231;SDS011;36118;56.468;84.952;2022-07-01T00:09:20;9.40;;;4.15;;
50231;SDS011;36118;56.468;84.952;2022-07-01T00:14:23;8.60;;;3.90;;
50231;SDS011;36118;56.468;84.952;2022-07-01T00:19:26;10.10;;;4.30;;
50231;SDS011;36118;56.468;84.952;2022-07-01T00:24:29;11.10;;;3.97;;
50231;SDS011;36118;56.468;84.952;2022-07-01T00:29:31;10.02;;;3.85;;
50231;SDS011;36118;56.468;84.952;2022-07-01T00:34:37;8.10;;;3.30;;
50231;SDS011;36118;56.468;84.952;2022-07-01T00:39:39;10.48;;;3.75;;
50231;SDS011;36118;56.468;84.952;2022-07-01T00:44:42;8.23;;;3.17;;
50231;SDS011;36118;56.468;84.952;2022-07-01T00:49:45;12.70;;;3.88;;
50231;SDS011;36118;56.468;84.952;2022-07-01T00:54:48;8.52;;;3.30;;
50231;SDS011;36118;56.468;84.952;2022-07-01T00:59:51;6.40;;;3.10;;
50231;SDS011;36118;56.468;84.952;2022-07-01T01:04:53;7.25;;;3.15;;
50231;SDS011;36118;56.468;84.952;2022-07-01T01:09:56;5.28;;;2.80;;
50231;SDS011;36118;56.468;84.952;2022-07-01T01:15:01;4.77;;;2.70;;
50231;SDS011;36118;56.468;84.952;2022-07-01T01:20:04;7.85;;;2.35;;
50231;SDS011;36118;56.468;84.952;2022-07-01T01:25:08;7.55;;;2.55;;
50231;SDS011;36118;56.468;84.952;2022-07-01T01:30:17;5.03;;;2.35;;
50231;SDS011;36118;56.468;84.952;2022-07-01T01:35:33;7.88;;;2.58;;
50231;SDS011;36118;56.468;84.952;2022-07-01T01:40:37;5.32;;;2.40;;
50231;SDS011;36118;56.468;84.952;2022-07-01T01:45:39;5.47;;;2.60;;
50231;SDS011;36118;56.468;84.952;2022-07-01T01:50:43;6.18;;;2.05;;
50231;SDS011;36118;56.468;84.952;2022-07-01T01:55:45;8.52;;;2.35;;
50231;SDS011;36118;56.468;84.952;2022-07-01T02:00:48;7.28;;;2.40;;
50231;SDS011;36118;56.468;84.952;2022-07-01T02:05:52;6.15;;;2.50;;
50231;SDS011;36118;56.468;84.952;2022-07-01T02:10:54;5.55;;;1.70;;
50231;SDS011;36118;56.468;84.952;2022-07-01T02:16:03;4.05;;;1.58;;
50231;SDS011;36118;56.468;84.952;2022-07-01T02:21:07;4.35;;;1.83;;
50231;SDS011;36118;56.468;84.952;2022-07-01T02:26:12;8.33;;;1.43;;
50231;SDS011;36118;56.468;84.952;2022-07-01T02:31:15;3.58;;;1.40;;
50231;SDS011;36118;56.468;84.952;2022-07-01T02:36:18;5.95;;;1.50;;
50231;SDS011;36118;56.468;84.952;2022-07-01T02:41:21;7.18;;;1.48;;
50231;SDS011;36118;56.468;84.952;2022-07-01T02:46:24;9.60;;;1.98;;
50231;SDS011;36118;56.468;84.952;2022-07-01T02:51:27;4.80;;;1.63;;
50231;SDS011;36118;56.468;84.952;2022-07-01T02:56:30;5.28;;;1.73;;
50231;SDS011;36118;56.468;84.952;2022-07-01T03:01:32;5.68;;;1.63;;
50231;SDS011;36118;56.468;84.952;2022-07-01T03:06:35;4.38;;;1.48;;
50231;SDS011;36118;56.468;84.952;2022-07-01T03:11:38;6.20;;;1.50;;
50231;SDS011;36118;56.468;84.952;2022-07-01T03:16:43;3.60;;;1.30;;
50231;SDS011;36118;56.468;84.952;2022-07-01T03:21:45;3.08;;;1.20;;
50231;SDS011;36118;56.468;84.952;2022-07-01T03:32:00;5.57;;;1.42;;
50231;SDS011;36118;56.468;84.952;2022-07-01T03:37:03;4.15;;;1.73;;
50231;SDS011;36118;56.468;84.952;2022-07-01T03:42:07;8.88;;;2.10;;
50231;SDS011;36118;56.468;84.952;2022-07-01T03:47:10;5.50;;;0.90;;
50231;SDS011;36118;56.468;84.952;2022-07-01T03:52:13;6.85;;;1.20;;
50231;SDS011;36118;56.468;84.952;2022-07-01T03:57:16;5.05;;;1.15;;
50231;SDS011;36118;56.468;84.952;2022-07-01T04:02:19;4.07;;;1.20;;
50231;SDS011;36118;56.468;84.952;2022-07-01T04:07:22;8.10;;;1.13;;
50231;SDS011;36118;56.468;84.952;2022-07-01T04:12:24;6.90;;;1.00;;
50231;SDS011;36118;56.468;84.952;2022-07-01T04:17:27;4.07;;;1.25;;
50231;SDS011;36118;56.468;84.952;2022-07-01T04:22:30;6.00;;;0.88;;
50231;SDS011;36118;56.468;84.952;2022-07-01T04:27:35;3.45;;;1.60;;
50231;SDS011;36118;56.468;84.952;2022-07-01T04:32:38;3.92;;;1.27;;
50231;SDS011;36118;56.468;84.952;2022-07-01T04:37:41;3.63;;;1.17;;
50231;SDS011;36118;56.468;84.952;2022-07-01T04:42:44;2.55;;;1.30;;
50231;SDS011;36118;56.468;84.952;2022-07-01T04:47:47;2.55;;;1.25;;
50231;SDS011;36118;56.468;84.952;2022-07-01T04:52:49;2.58;;;1.42;;
50231;SDS011;36118;56.468;84.952;2022-07-01T04:57:52;4.20;;;1.67;;
50231;SDS011;36118;56.468;84.952;2022-07-01T05:02:55;4.15;;;1.55;;
50231;SDS011;36118;56.468;84.952;2022-07-01T05:07:58;6.60;;;1.70;;
50231;SDS011;36118;56.468;84.952;2022-07-01T05:13:01;3.67;;;1.50;;
50231;SDS011;36118;56.468;84.952;2022-07-01T05:18:04;5.47;;;1.30;;
50231;SDS011;36118;56.468;84.952;2022-07-01T05:23:25;4.43;;;1.20;;
50231;SDS011;36118;56.468;84.952;2022-07-01T05:28:28;7.63;;;1.52;;
50231;SDS011;36118;56.468;84.952;2022-07-01T05:33:31;3.38;;;1.23;;
50231;SDS011;36118;56.468;84.952;2022-07-01T05:38:33;3.00;;;1.20;;
50231;SDS011;36118;56.468;84.952;2022-07-01T05:43:36;5.18;;;1.33;;
50231;SDS011;36118;56.468;84.952;2022-07-01T05:48:39;5.65;;;1.42;;
50231;SDS011;36118;56.468;84.952;2022-07-01T05:53:42;6.22;;;1.67;;
50231;SDS011;36118;56.468;84.952;2022-07-01T05:58:45;5.85;;;1.23;;
50231;SDS011;36118;56.468;84.952;2022-07-01T06:03:48;2.40;;;1.30;;
50231;SDS011;36118;56.468;84.952;2022-07-01T06:08:52;4.70;;;1.33;;
50231;SDS011;36118;56.468;84.952;2022-07-01T06:19:00;8.00;;;1.33;;
50231;SDS011;36118;56.468;84.952;2022-07-01T06:24:03;2.83;;;1.42;;
50231;SDS011;36118;56.468;84.952;2022-07-01T06:29:06;2.38;;;1.40;;
50231;SDS011;36118;56.468;84.952;2022-07-01T06:34:12;5.65;;;1.50;;
50231;SDS011;36118;56.468;84.952;2022-07-01T06:39:22;6.78;;;1.50;;
50231;SDS011;36118;56.468;84.952;2022-07-01T06:44:27;5.07;;;1.70;;
50231;SDS011;36118;56.468;84.952;2022-07-01T06:49:29;4.75;;;1.65;;
50231;SDS011;36118;56.468;84.952;2022-07-01T06:54:33;8.20;;;1.80;;
50231;SDS011;36118;56.468;84.952;2022-07-01T06:59:40;3.45;;;1.67;;
50231;SDS011;36118;56.468;84.952;2022-07-01T07:04:43;7.18;;;1.85;;
50231;SDS011;36118;56.468;84.952;2022-07-01T07:10:04;5.10;;;2.08;;
50231;SDS011;36118;56.468;84.952;2022-07-01T07:15:14;6.18;;;2.10;;
50231;SDS011;36118;56.468;84.952;2022-07-01T07:20:21;4.45;;;1.80;;
50231;SDS011;36118;56.468;84.952;2022-07-01T07:25:24;2.90;;;1.70;;
50231;SDS011;36118;56.468;84.952;2022-07-01T07:30:27;3.58;;;2.00;;
50231;SDS011;36118;56.468;84.952;2022-07-01T07:35:33;3.47;;;2.03;;
50231;SDS011;36118;56.468;84.952;2022-07-01T07:40:35;4.88;;;1.83;;
50231;SDS011;36118;56.468;84.952;2022-07-01T07:45:38;4.32;;;1.98;;
50231;SDS011;36118;56.468;84.952;2022-07-01T07:50:41;5.28;;;2.08;;
50231;SDS011;36118;56.468;84.952;2022-07-01T07:55:44;3.88;;;2.00;;
50231;SDS011;36118;56.468;84.952;2022-07-01T08:00:47;6.53;;;2.65;;
50231;SDS011;36118;56.468;84.952;2022-07-01T08:05:50;6.00;;;2.40;;
50231;SDS011;36118;56.468;84.952;2022-07-01T08:10:53;5.97;;;2.70;;
50231;SDS011;36118;56.468;84.952;2022-07-01T08:15:56;7.35;;;2.47;;
50231;SDS011;36118;56.468;84.952;2022-07-01T08:20:59;6.40;;;2.13;;
50231;SDS011;36118;56.468;84.952;2022-07-01T08:26:01;5.25;;;2.17;;
50231;SDS011;36118;56.468;84.952;2022-07-01T08:31:05;5.57;;;2.25;;
50231;SDS011;36118;56.468;84.952;2022-07-01T08:36:08;8.25;;;2.10;;
50231;SDS011;36118;56.468;84.952;2022-07-01T08:41:13;4.85;;;2.00;;
50231;SDS011;36118;56.468;84.952;2022-07-01T08:46:16;5.78;;;2.10;;
50231;SDS011;36118;56.468;84.952;2022-07-01T08:51:19;5.68;;;2.20;;
50231;SDS011;36118;56.468;84.952;2022-07-01T08:56:22;5.53;;;1.90;;
50231;SDS011;36118;56.468;84.952;2022-07-01T09:01:53;4.57;;;2.40;;
50231;SDS011;36118;56.468;84.952;2022-07-01T09:07:05;6.68;;;2.28;;
50231;SDS011;36118;56.468;84.952;2022-07-01T09:12:09;6.55;;;2.38;;
50231;SDS011;36118;56.468;84.952;2022-07-01T09:17:18;6.38;;;1.98;;
50231;SDS011;36118;56.468;84.952;2022-07-01T09:22:22;7.28;;;1.85;;
50231;SDS011;36118;56.468;84.952;2022-07-01T09:27:28;8.90;;;2.35;;
50231;SDS011;36118;56.468;84.952;2022-07-01T09:32:31;6.15;;;1.90;;
50231;SDS011;36118;56.468;84.952;2022-07-01T09:37:34;5.03;;;2.08;;
50231;SDS011;36118;56.468;84.952;2022-07-01T09:42:44;9.30;;;2.20;;
50231;SDS011;36118;56.468;84.952;2022-07-01T09:47:48;7.93;;;1.90;;
50231;SDS011;36118;56.468;84.952;2022-07-01T09:57:59;7.03;;;1.83;;
50231;SDS011;36118;56.468;84.952;2022-07-01T10:03:03;8.07;;;2.00;;
50231;SDS011;36118;56.468;84.952;2022-07-01T10:13:41;4.57;;;1.58;;
50231;SDS011;36118;56.468;84.952;2022-07-01T10:18:44;5.57;;;1.80;;
50231;SDS011;36118;56.468;84.952;2022-07-01T10:23:47;7.60;;;1.33;;
50231;SDS011;36118;56.468;84.952;2022-07-01T10:28:54;6.97;;;1.60;;
50231;SDS011;36118;56.468;84.952;2022-07-01T10:44:16;3.97;;;1.52;;
50231;SDS011;36118;56.468;84.952;2022-07-01T10:49:20;4.32;;;1.20;;
50231;SDS011;36118;56.468;84.952;2022-07-01T11:00:28;6.22;;;1.50;;
50231;SDS011;36118;56.468;84.952;2022-07-01T11:05:09;3.72;;;1.48;;
50231;SDS011;36118;56.468;84.952;2022-07-01T11:10:15;3.70;;;1.38;;
50231;SDS011;36118;56.468;84.952;2022-07-01T11:15:22;5.88;;;1.45;;
50231;SDS011;36118;56.468;84.952;2022-07-01T11:20:25;4.95;;;1.30;;
50231;SDS011;36118;56.468;84.952;2022-07-01T11:25:32;4.18;;;1.40;;
50231;SDS011;36118;56.468;84.952;2022-07-01T11:30:35;3.38;;;1.60;;
50231;SDS011;36118;56.468;84.952;2022-07-01T11:35:39;6.63;;;1.40;;
50231;SDS011;36118;56.468;84.952;2022-07-01T11:41:05;6.10;;;1.70;;
50231;SDS011;36118;56.468;84.952;2022-07-01T11:46:13;4.28;;;1.45;;
50231;SDS011;36118;56.468;84.952;2022-07-01T11:51:20;3.60;;;1.20;;
50231;SDS011;36118;56.468;84.952;2022-07-01T11:56:30;3.47;;;1.20;;
50231;SDS011;36118;56.468;84.952;2022-07-01T12:01:39;3.78;;;1.45;;
50231;SDS011;36118;56.468;84.952;2022-07-01T12:07:03;4.32;;;1.55;;
50231;SDS011;36118;56.468;84.952;2022-07-01T12:12:06;6.72;;;1.70;;
50231;SDS011;36118;56.468;84.952;2022-07-01T12:17:11;4.53;;;1.60;;
50231;SDS011;36118;56.468;84.952;2022-07-01T12:22:20;8.45;;;1.88;;
50231;SDS011;36118;56.468;84.952;2022-07-01T12:27:25;5.40;;;1.92;;
50231;SDS011;36118;56.468;84.952;2022-07-01T12:32:29;4.47;;;2.17;;
50231;SDS011;36118;56.468;84.952;2022-07-01T12:37:34;10.88;;;2.75;;
50231;SDS011;36118;56.468;84.952;2022-07-01T12:42:42;5.70;;;2.00;;
50231;SDS011;36118;56.468;84.952;2022-07-01T12:47:46;7.07;;;3.72;;
50231;SDS011;36118;56.468;84.952;2022-07-01T12:53:10;5.85;;;2.90;;
50231;SDS011;36118;56.468;84.952;2022-07-01T12:58:19;8.55;;;2.80;;
50231;SDS011;36118;56.468;84.952;2022-07-01T13:03:28;5.55;;;2.33;;
50231;SDS011;36118;56.468;84.952;2022-07-01T13:08:37;6.80;;;2.15;;
50231;SDS011;36118;56.468;84.952;2022-07-01T13:13:40;5.22;;;2.80;;
50231;SDS011;36118;56.468;84.952;2022-07-01T13:18:43;6.28;;;2.40;;
50231;SDS011;36118;56.468;84.952;2022-07-01T13:23:46;6.45;;;2.72;;
50231;SDS011;36118;56.468;84.952;2022-07-01T13:28:49;9.20;;;2.88;;
50231;SDS011;36118;56.468;84.952;2022-07-01T13:33:51;4.88;;;2.58;;
50231;SDS011;36118;56.468;84.952;2022-07-01T13:38:54;6.43;;;2.78;;
50231;SDS011;36118;56.468;84.952;2022-07-01T13:43:57;4.95;;;2.40;;
50231;SDS011;36118;56.468;84.952;2022-07-01T13:49:00;8.25;;;2.47;;
50231;SDS011;36118;56.468;84.952;2022-07-01T13:54:04;7.30;;;2.72;;
50231;SDS011;36118;56.468;84.952;2022-07-01T13:59:06;6.90;;;2.70;;
50231;SDS011;36118;56.468;84.952;2022-07-01T14:04:10;6.35;;;2.75;;
50231;SDS011;36118;56.468;84.952;2022-07-01T14:09:13;7.53;;;3.30;;
50231;SDS011;36118;56.468;84.952;2022-07-01T14:14:16;6.57;;;3.35;;
50231;SDS011;36118;56.468;84.952;2022-07-01T14:19:19;10.13;;;3.03;;
50231;SDS011;36118;56.468;84.952;2022-07-01T14:24:23;8.13;;;3.30;;
50231;SDS011;36118;56.468;84.952;2022-07-01T14:29:25;9.70;;;4.28;;
50231;SDS011;36118;56.468;84.952;2022-07-01T14:34:28;6.75;;;4.60;;
50231;SDS011;36118;56.468;84.952;2022-07-01T14:39:31;8.68;;;4.03;;
50231;SDS011;36118;56.468;84.952;2022-07-01T14:44:36;12.93;;;4.20;;
50231;SDS011;36118;56.468;84.952;2022-07-01T14:49:40;10.82;;;3.95;;
50231;SDS011;36118;56.468;84.952;2022-07-01T14:54:43;8.73;;;3.60;;
50231;SDS011;36118;56.468;84.952;2022-07-01T14:59:46;9.00;;;3.65;;
50231;SDS011;36118;56.468;84.952;2022-07-01T15:04:49;6.95;;;3.65;;
50231;SDS011;36118;56.468;84.952;2022-07-01T15:09:55;12.85;;;3.92;;
50231;SDS011;36118;56.468;84.952;2022-07-01T15:15:04;8.57;;;3.85;;
50231;SDS011;36118;56.468;84.952;2022-07-01T15:20:13;11.15;;;3.80;;
50231;SDS011;36118;56.468;84.952;2022-07-01T15:25:18;9.80;;;3.60;;
50231;SDS011;36118;56.468;84.952;2022-07-01T15:30:21;10.88;;;3.97;;
50231;SDS011;36118;56.468;84.952;2022-07-01T15:35:24;9.55;;;4.10;;
50231;SDS011;36118;56.468;84.952;2022-07-01T15:40:27;9.00;;;4.00;;
50231;SDS011;36118;56.468;84.952;2022-07-01T15:45:30;10.02;;;4.25;;
50231;SDS011;36118;56.468;84.952;2022-07-01T15:50:34;9.48;;;4.10;;
50231;SDS011;36118;56.468;84.952;2022-07-01T15:55:38;11.10;;;4.55;;
50231;SDS011;36118;56.468;84.952;2022-07-01T16:00:43;11.18;;;4.10;;
50231;SDS011;36118;56.468;84.952;2022-07-01T16:05:48;10.18;;;4.20;;
50231;SDS011;36118;56.468;84.952;2022-07-01T16:10:53;11.73;;;4.65;;
50231;SDS011;36118;56.468;84.952;2022-07-01T16:16:01;6.30;;;4.03;;
50231;SDS011;36118;56.468;84.952;2022-07-01T16:21:04;7.70;;;3.85;;
50231;SDS011;36118;56.468;84.952;2022-07-01T16:26:10;9.13;;;3.78;;
50231;SDS011;36118;56.468;84.952;2022-07-01T16:31:18;8.23;;;3.60;;
50231;SDS011;36118;56.468;84.952;2022-07-01T16:36:29;10.35;;;3.63;;
50231;SDS011;36118;56.468;84.952;2022-07-01T16:41:41;8.18;;;3.60;;
50231;SDS011;36118;56.468;84.952;2022-07-01T16:46:45;9.23;;;3.35;;
50231;SDS011;36118;56.468;84.952;2022-07-01T16:51:49;7.60;;;3.37;;
50231;SDS011;36118;56.468;84.952;2022-07-01T16:57:00;5.10;;;3.00;;
50231;SDS011;36118;56.468;84.952;2022-07-01T17:02:06;5.35;;;3.20;;
50231;SDS011;36118;56.468;84.952;2022-07-01T17:07:09;8.95;;;3.10;;
50231;SDS011;36118;56.468;84.952;2022-07-01T17:12:13;6.60;;;3.00;;
50231;SDS011;36118;56.468;84.952;2022-07-01T17:17:20;6.75;;;3.13;;
50231;SDS011;36118;56.468;84.952;2022-07-01T17:23:24;4.63;;;2.78;;
50231;SDS011;36118;56.468;84.952;2022-07-01T17:33:34;4.85;;;2.70;;
50231;SDS011;36118;56.468;84.952;2022-07-01T17:38:48;7.97;;;3.40;;
50231;SDS011;36118;56.468;84.952;2022-07-01T17:44:00;5.65;;;2.70;;
50231;SDS011;36118;56.468;84.952;2022-07-01T17:49:05;4.80;;;2.70;;
50231;SDS011;36118;56.468;84.952;2022-07-01T17:54:16;6.77;;;2.73;;
50231;SDS011;36118;56.468;84.952;2022-07-01T17:59:21;4.40;;;2.58;;
50231;SDS011;36118;56.468;84.952;2022-07-01T18:04:27;4.25;;;2.58;;
50231;SDS011;36118;56.468;84.952;2022-07-01T18:09:30;6.45;;;2.50;;
50231;SDS011;36118;56.468;84.952;2022-07-01T18:20:07;6.38;;;3.13;;
50231;SDS011;36118;56.468;84.952;2022-07-01T18:25:37;5.22;;;2.63;;
50231;SDS011;36118;56.468;84.952;2022-07-01T18:30:44;5.05;;;2.83;;
50231;SDS011;36118;56.468;84.952;2022-07-01T18:35:50;5.32;;;2.63;;
50231;SDS011;36118;56.468;84.952;2022-07-01T18:40:57;4.00;;;2.63;;
50231;SDS011;36118;56.468;84.952;2022-07-01T18:46:03;5.50;;;2.80;;
50231;SDS011;36118;56.468;84.952;2022-07-01T18:51:06;6.55;;;2.67;;
50231;SDS011;36118;56.468;84.952;2022-07-01T18:56:09;7.85;;;2.72;;
50231;SDS011;36118;56.468;84.952;2022-07-01T19:01:12;15.90;;;5.15;;
50231;SDS011;36118;56.468;84.952;2022-07-01T19:06:18;22.98;;;13.80;;
50231;SDS011;36118;56.468;84.952;2022-07-01T19:11:21;22.92;;;16.55;;
50231;SDS011;36118;56.468;84.952;2022-07-01T19:16:24;18.00;;;13.88;;
50231;SDS011;36118;56.468;84.952;2022-07-01T19:21:27;29.17;;;20.80;;
50231;SDS011;36118;56.468;84.952;2022-07-01T19:26:30;27.70;;;20.95;;
50231;SDS011;36118;56.468;84.952;2022-07-01T19:31:33;13.15;;;6.40;;
50231;SDS011;36118;56.468;84.952;2022-07-01T19:36:36;7.13;;;3.67;;
50231;SDS011;36118;56.468;84.952;2022-07-01T19:41:39;4.50;;;2.88;;
50231;SDS011;36118;56.468;84.952;2022-07-01T19:46:42;6.93;;;3.20;;
50231;SDS011;36118;56.468;84.952;2022-07-01T19:51:45;5.80;;;2.90;;
50231;SDS011;36118;56.468;84.952;2022-07-01T19:56:48;5.53;;;2.88;;
50231;SDS011;36118;56.468;84.952;2022-07-01T20:01:51;4.57;;;2.72;;
50231;SDS011;36118;56.468;84.952;2022-07-01T20:06:55;5.60;;;2.80;;
50231;SDS011;36118;56.468;84.952;2022-07-01T20:12:00;5.13;;;2.70;;
50231;SDS011;36118;56.468;84.952;2022-07-01T20:17:03;5.75;;;3.10;;
50231;SDS011;36118;56.468;84.952;2022-07-01T20:22:08;4.17;;;2.60;;
50231;SDS011;36118;56.468;84.952;2022-07-01T20:27:11;6.68;;;3.28;;
50231;SDS011;36118;56.468;84.952;2022-07-01T20:32:14;7.05;;;3.17;;
50231;SDS011;36118;56.468;84.952;2022-07-01T20:37:17;5.18;;;3.10;;
50231;SDS011;36118;56.468;84.952;2022-07-01T20:42:20;6.43;;;3.47;;
50231;SDS011;36118;56.468;84.952;2022-07-01T20:47:23;6.38;;;3.22;;
50231;SDS011;36118;56.468;84.952;2022-07-01T20:52:31;5.07;;;3.60;;
50231;SDS011;36118;56.468;84.952;2022-07-01T20:57:34;6.95;;;3.80;;
50231;SDS011;36118;56.468;84.952;2022-07-01T21:02:37;5.40;;;3.70;;
50231;SDS011;36118;56.468;84.952;2022-07-01T21:07:44;6.63;;;3.70;;
50231;SDS011;36118;56.468;84.952;2022-07-01T21:12:47;5.88;;;4.07;;
50231;SDS011;36118;56.468;84.952;2022-07-01T21:17:50;5.95;;;4.47;;
50231;SDS011;36118;56.468;84.952;2022-07-01T21:22:54;5.45;;;4.53;;
50231;SDS011;36118;56.468;84.952;2022-07-01T21:28:00;6.60;;;4.78;;
50231;SDS011;36118;56.468;84.952;2022-07-01T21:33:05;7.20;;;5.20;;
50231;SDS011;36118;56.468;84.952;2022-07-01T21:38:08;6.18;;;4.80;;
50231;SDS011;36118;56.468;84.952;2022-07-01T21:43:11;7.18;;;5.32;;
50231;SDS011;36118;56.468;84.952;2022-07-01T21:48:15;7.43;;;4.63;;
50231;SDS011;36118;56.468;84.952;2022-07-01T21:53:22;7.38;;;5.07;;
50231;SDS011;36118;56.468;84.952;2022-07-01T21:58:25;7.75;;;5.25;;
50231;SDS011;36118;56.468;84.952;2022-07-01T22:03:29;7.10;;;5.30;;
50231;SDS011;36118;56.468;84.952;2022-07-01T22:08:33;7.22;;;4.75;;
50231;SDS011;36118;56.468;84.952;2022-07-01T22:13:59;5.82;;;4.85;;
50231;SDS011;36118;56.468;84.952;2022-07-01T22:19:03;8.35;;;4.90;;
50231;SDS011;36118;56.468;84.952;2022-07-01T22:24:07;6.57;;;4.85;;
50231;SDS011;36118;56.468;84.952;2022-07-01T22:29:10;6.07;;;4.65;;
50231;SDS011;36118;56.468;84.952;2022-07-01T22:34:14;5.13;;;4.22;;
50231;SDS011;36118;56.468;84.952;2022-07-01T22:39:18;5.85;;;4.32;;
50231;SDS011;36118;56.468;84.952;2022-07-01T22:44:22;5.20;;;3.92;;
50231;SDS011;36118;56.468;84.952;2022-07-01T23:00:11;5.82;;;3.85;;
50231;SDS011;36118;56.468;84.952;2022-07-01T23:05:15;4.82;;;3.33;;
50231;SDS011;36118;56.468;84.952;2022-07-01T23:10:28;6.43;;;3.70;;
50231;SDS011;36118;56.468;84.952;2022-07-01T23:15:34;6.13;;;3.72;;
50231;SDS011;36118;56.468;84.952;2022-07-01T23:20:58;5.35;;;3.67;;
50231;SDS011;36118;56.468;84.952;2022-07-01T23:26:03;8.27;;;3.80;;
50231;SDS011;36118;56.468;84.952;2022-07-01T23:31:06;6.35;;;3.60;;
50231;SDS011;36118;56.468;84.952;2022-07-01T23:36:10;7.30;;;3.50;;
50231;SDS011;36118;56.468;84.952;2022-07-01T23:41:13;5.05;;;3.55;;
50231;SDS011;36118;56.468;84.952;2022-07-01T23:46:18;6.00;;;3.47;;
50231;SDS011;36118;56.468;84.952;2022-07-01T23:51:25;4.57;;;3.55;;
50231;SDS011;36118;56.468;84.952;2022-07-01T23:56:28;7.97;;;3.70;;
